Time;durP1;ratioP1;P1;durP2;ratioP2;P2;SDS_P1;SDS_P2;PMS_P1;PMS_P2;Temp;Humidity;BMP_temperature;BMP_pressure;BME280_temperature;BME280_humidity;BME280_pressure;Samples;Min_cycle;Max_cycle;Signal;HPM_P1;HPM_P2
2022/01/05 00:01:27;;;;;;;1.67;1.50;;;;;;;;;;5064771;28;20204;-66
2022/01/05 00:04:14;;;;;;;1.80;1.40;;;;;;;;;;5063528;28;20662;-65
2022/01/05 00:07:01;;;;;;;2.63;1.57;;;;;;;;;;5062149;28;20369;-66
2022/01/05 00:09:48;;;;;;;2.13;1.47;;;;;;;;;;5064629;28;20550;-66
2022/01/05 00:12:35;;;;;;;1.80;1.50;;;;;;;;;;5061259;28;20236;-65
2022/01/05 00:15:24;;;;;;;1.87;1.50;;;;;;;;;;5057323;28;20298;-67
2022/01/05 00:18:11;;;;;;;1.70;1.60;;;;;;;;;;5065165;28;20240;-66
2022/01/05 00:20:59;;;;;;;2.00;1.80;;;;;;;;;;5060747;28;20263;-65
2022/01/05 00:23:46;;;;;;;2.33;1.87;;;;;;;;;;5061477;28;20704;-66
2022/01/05 00:26:33;;;;;;;2.47;1.73;;;;;;;;;;5061933;28;20301;-65
2022/01/05 00:29:21;;;;;;;1.87;1.77;;;;;;;;;;5062359;28;20269;-66
2022/01/05 00:32:09;;;;;;;3.40;1.90;;;;;;;;;;5062038;28;20240;-66
2022/01/05 00:34:56;;;;;;;1.90;1.70;;;;;;;;;;5063258;28;20240;-67
2022/01/05 00:37:43;;;;;;;1.63;1.50;;;;;;;;;;5064588;28;20284;-66
2022/01/05 00:40:30;;;;;;;1.80;1.67;;;;;;;;;;5063844;28;20254;-66
2022/01/05 00:43:17;;;;;;;1.97;1.80;;;;;;;;;;5062850;28;20213;-65
2022/01/05 00:46:05;;;;;;;1.90;1.60;;;;;;;;;;5064590;28;20271;-65
2022/01/05 00:48:53;;;;;;;1.53;1.43;;;;;;;;;;5065158;28;20282;-66
2022/01/05 00:51:40;;;;;;;1.63;1.53;;;;;;;;;;5064233;28;20618;-65
2022/01/05 00:54:27;;;;;;;1.90;1.67;;;;;;;;;;5065927;28;20223;-65
2022/01/05 00:57:15;;;;;;;1.73;1.63;;;;;;;;;;5058633;28;20302;-66
2022/01/05 01:00:02;;;;;;;1.70;1.60;;;;;;;;;;5063242;28;20213;-67
2022/01/05 01:02:49;;;;;;;1.07;1.07;;;;;;;;;;5064170;28;20220;-66
2022/01/05 01:05:37;;;;;;;1.60;1.50;;;;;;;;;;5064448;28;20278;-65
2022/01/05 01:08:24;;;;;;;1.23;1.10;;;;;;;;;;5063098;28;20236;-65
2022/01/05 01:11:11;;;;;;;1.40;1.30;;;;;;;;;;5064939;28;20269;-65
2022/01/05 01:13:58;;;;;;;1.60;1.50;;;;;;;;;;5065602;28;20215;-66
2022/01/05 01:16:45;;;;;;;2.10;1.50;;;;;;;;;;5062082;28;20215;-65
2022/01/05 01:19:32;;;;;;;1.40;1.30;;;;;;;;;;5055858;28;20675;-65
2022/01/05 01:22:20;;;;;;;1.70;1.43;;;;;;;;;;5061812;28;20196;-66
2022/01/05 01:25:08;;;;;;;1.47;1.37;;;;;;;;;;5061583;28;20218;-65
2022/01/05 01:27:55;;;;;;;1.23;1.17;;;;;;;;;;5063574;28;20212;-67
2022/01/05 01:30:42;;;;;;;1.40;1.00;;;;;;;;;;5065458;28;20319;-65
2022/01/05 01:33:29;;;;;;;1.30;1.20;;;;;;;;;;5060173;28;20688;-66
2022/01/05 01:36:16;;;;;;;1.13;1.10;;;;;;;;;;5062285;28;20259;-65
2022/01/05 01:39:04;;;;;;;1.33;1.23;;;;;;;;;;5059310;28;20212;-65
2022/01/05 01:41:51;;;;;;;1.10;1.10;;;;;;;;;;5060529;28;20720;-65
2022/01/05 01:44:38;;;;;;;1.23;1.13;;;;;;;;;;5063400;28;20235;-66
2022/01/05 01:47:25;;;;;;;1.17;1.00;;;;;;;;;;5058105;28;20255;-66
2022/01/05 01:50:13;;;;;;;0.90;0.90;;;;;;;;;;5062385;28;20234;-66
2022/01/05 01:53:00;;;;;;;1.20;1.10;;;;;;;;;;5060248;28;20262;-65
2022/01/05 01:55:51;;;;;;;1.37;0.80;;;;;;;;;;5060109;28;20343;-65
2022/01/05 01:58:38;;;;;;;1.07;1.00;;;;;;;;;;5066912;28;20223;-65
2022/01/05 02:01:25;;;;;;;1.07;0.97;;;;;;;;;;5062307;28;20780;-66
2022/01/05 02:04:12;;;;;;;0.90;0.90;;;;;;;;;;5059043;28;20557;-66
2022/01/05 02:06:59;;;;;;;1.00;1.00;;;;;;;;;;5061385;28;20244;-66
2022/01/05 02:09:46;;;;;;;0.70;0.70;;;;;;;;;;5063289;28;20619;-66
2022/01/05 02:12:34;;;;;;;0.83;0.83;;;;;;;;;;5064650;28;20227;-65
2022/01/05 02:15:21;;;;;;;0.63;0.63;;;;;;;;;;5060387;28;20204;-66
2022/01/05 02:18:57;;;;;;;0.70;0.70;;;;;;;;;;5062946;28;20224;-66
2022/01/05 02:21:19;;;;;;;0.70;0.70;;;;;;;;;;5064666;28;20204;-65
2022/01/05 02:24:08;;;;;;;0.57;0.57;;;;;;;;;;5066031;28;20664;-65
2022/01/05 02:26:55;;;;;;;0.60;0.60;;;;;;;;;;5055544;28;20283;-65
2022/01/05 02:29:42;;;;;;;0.40;0.40;;;;;;;;;;5063017;28;20709;-68
2022/01/05 02:32:29;;;;;;;0.50;0.50;;;;;;;;;;5058229;28;20282;-65
2022/01/05 02:35:16;;;;;;;0.63;0.60;;;;;;;;;;5063294;28;20249;-66
2022/01/05 02:38:04;;;;;;;0.50;0.50;;;;;;;;;;5059267;28;20290;-66
2022/01/05 02:40:52;;;;;;;0.50;0.50;;;;;;;;;;5062718;28;20665;-66
2022/01/05 02:43:41;;;;;;;0.80;0.80;;;;;;;;;;5063001;28;20205;-66
2022/01/05 02:46:28;;;;;;;0.47;0.47;;;;;;;;;;5060095;28;20795;-66
2022/01/05 02:49:15;;;;;;;0.50;0.50;;;;;;;;;;5062235;28;20615;-66
2022/01/05 02:52:01;;;;;;;0.43;0.43;;;;;;;;;;5063657;28;20309;-65
2022/01/05 02:54:50;;;;;;;0.40;0.40;;;;;;;;;;5065810;28;20210;-66
2022/01/05 02:57:37;;;;;;;0.40;0.40;;;;;;;;;;5065422;28;20626;-66
2022/01/05 03:00:24;;;;;;;0.50;0.50;;;;;;;;;;5063041;28;20693;-65
2022/01/05 03:03:11;;;;;;;0.60;0.60;;;;;;;;;;5066304;28;20389;-65
2022/01/05 03:05:58;;;;;;;0.30;0.30;;;;;;;;;;5064944;28;20645;-65
2022/01/05 03:08:45;;;;;;;0.40;0.40;;;;;;;;;;5067256;28;20240;-65
2022/01/05 03:11:33;;;;;;;0.67;0.47;;;;;;;;;;5065036;28;20348;-65
2022/01/05 03:14:21;;;;;;;0.40;0.40;;;;;;;;;;5066828;28;20217;-65
2022/01/05 03:17:07;;;;;;;0.50;0.50;;;;;;;;;;5064877;28;20265;-65
2022/01/05 03:19:54;;;;;;;0.30;0.30;;;;;;;;;;5064762;28;20301;-66
2022/01/05 03:22:42;;;;;;;0.30;0.30;;;;;;;;;;5061817;28;20205;-65
2022/01/05 03:25:29;;;;;;;0.60;0.60;;;;;;;;;;5068220;28;20210;-66
2022/01/05 03:28:17;;;;;;;0.50;0.50;;;;;;;;;;5060325;28;20213;-66
2022/01/05 03:31:04;;;;;;;0.50;0.50;;;;;;;;;;5064813;28;20656;-66
2022/01/05 03:33:51;;;;;;;0.47;0.43;;;;;;;;;;5064374;28;20243;-66
2022/01/05 03:36:38;;;;;;;0.50;0.50;;;;;;;;;;5065471;28;20215;-65
2022/01/05 03:39:25;;;;;;;0.60;0.50;;;;;;;;;;5066807;28;20583;-66
2022/01/05 03:42:12;;;;;;;0.50;0.50;;;;;;;;;;5065135;28;20868;-65
2022/01/05 03:45:00;;;;;;;0.50;0.50;;;;;;;;;;5064132;28;20612;-65
2022/01/05 03:47:47;;;;;;;0.60;0.53;;;;;;;;;;5064989;28;20271;-66
2022/01/05 03:50:34;;;;;;;0.87;0.70;;;;;;;;;;5068709;28;20236;-66
2022/01/05 03:53:21;;;;;;;0.53;0.53;;;;;;;;;;5066692;28;20207;-66
2022/01/05 03:56:08;;;;;;;0.43;0.43;;;;;;;;;;5067059;28;20252;-66
2022/01/05 03:58:55;;;;;;;0.60;0.60;;;;;;;;;;5067220;28;20215;-66
2022/01/05 04:01:43;;;;;;;0.83;0.73;;;;;;;;;;5066425;28;20293;-66
2022/01/05 04:04:30;;;;;;;0.90;0.80;;;;;;;;;;5066357;28;20263;-65
2022/01/05 04:07:17;;;;;;;1.70;1.03;;;;;;;;;;5064920;28;20721;-66
2022/01/05 04:10:05;;;;;;;1.23;0.90;;;;;;;;;;5064910;28;20243;-65
2022/01/05 04:12:52;;;;;;;0.50;0.50;;;;;;;;;;5059763;28;20282;-67
2022/01/05 04:15:39;;;;;;;0.70;0.70;;;;;;;;;;5064802;28;20258;-65
2022/01/05 04:18:27;;;;;;;1.27;1.13;;;;;;;;;;5062974;28;20287;-66
2022/01/05 04:21:14;;;;;;;1.40;0.90;;;;;;;;;;5063154;28;20944;-66
2022/01/05 04:24:01;;;;;;;1.20;0.87;;;;;;;;;;5063992;28;20293;-65
2022/01/05 04:26:48;;;;;;;1.00;0.90;;;;;;;;;;5061580;28;20208;-67
2022/01/05 04:29:35;;;;;;;1.40;1.03;;;;;;;;;;5065507;28;20205;-65
2022/01/05 04:32:22;;;;;;;1.23;1.13;;;;;;;;;;5064620;28;20248;-65
2022/01/05 04:35:13;;;;;;;1.00;0.90;;;;;;;;;;5061888;28;20204;-66
2022/01/05 04:38:00;;;;;;;1.73;1.10;;;;;;;;;;5063686;28;20233;-66
2022/01/05 04:40:47;;;;;;;1.47;1.00;;;;;;;;;;5060952;28;20214;-65
2022/01/05 04:43:34;;;;;;;1.23;0.90;;;;;;;;;;5064168;28;20673;-65
2022/01/05 04:46:21;;;;;;;1.50;1.20;;;;;;;;;;5064612;28;20235;-65
2022/01/05 04:49:08;;;;;;;1.40;1.03;;;;;;;;;;5062171;28;20515;-66
2022/01/05 04:51:56;;;;;;;1.27;1.00;;;;;;;;;;5064586;28;20225;-65
2022/01/05 04:54:43;;;;;;;1.73;1.30;;;;;;;;;;5059776;28;20212;-66
2022/01/05 04:57:30;;;;;;;2.37;1.20;;;;;;;;;;5063862;28;20232;-65
2022/01/05 05:00:17;;;;;;;2.13;1.33;;;;;;;;;;5061364;28;20680;-65
2022/01/05 05:03:04;;;;;;;1.30;1.17;;;;;;;;;;5060787;28;20209;-65
2022/01/05 05:05:51;;;;;;;1.50;0.93;;;;;;;;;;5064777;28;20232;-65
2022/01/05 05:08:39;;;;;;;1.80;1.37;;;;;;;;;;5059880;28;20327;-66
2022/01/05 05:11:26;;;;;;;1.53;1.10;;;;;;;;;;5062794;28;20217;-66
2022/01/05 05:14:13;;;;;;;2.10;1.43;;;;;;;;;;5063916;28;20253;-66
2022/01/05 05:17:00;;;;;;;2.10;1.20;;;;;;;;;;5061750;28;20205;-65
2022/01/05 05:19:48;;;;;;;2.33;1.47;;;;;;;;;;5063847;28;20234;-66
2022/01/05 05:22:36;;;;;;;1.63;1.10;;;;;;;;;;5058774;28;20209;-66
2022/01/05 05:25:24;;;;;;;1.83;1.37;;;;;;;;;;5065741;28;20576;-66
2022/01/05 05:28:11;;;;;;;1.30;1.20;;;;;;;;;;5062250;28;20216;-65
2022/01/05 05:30:58;;;;;;;1.23;1.13;;;;;;;;;;5061298;28;20301;-66
2022/01/05 05:33:45;;;;;;;1.83;1.10;;;;;;;;;;5061083;28;20262;-66
2022/01/05 05:36:32;;;;;;;2.87;1.30;;;;;;;;;;5062114;28;20353;-65
2022/01/05 05:39:19;;;;;;;2.37;1.30;;;;;;;;;;5057471;28;20382;-65
2022/01/05 05:42:09;;;;;;;2.33;1.20;;;;;;;;;;5063508;28;20222;-65
2022/01/05 05:44:56;;;;;;;1.43;1.10;;;;;;;;;;5064776;28;20970;-65
2022/01/05 05:47:43;;;;;;;2.07;1.20;;;;;;;;;;5060380;28;20213;-65
2022/01/05 05:50:30;;;;;;;1.70;1.20;;;;;;;;;;5063408;28;20269;-65
2022/01/05 05:53:17;;;;;;;1.97;1.20;;;;;;;;;;5059904;28;20280;-65
2022/01/05 05:56:04;;;;;;;1.43;1.20;;;;;;;;;;5064164;28;20213;-65
2022/01/05 05:58:53;;;;;;;1.70;1.10;;;;;;;;;;5062179;28;20303;-66
2022/01/05 06:01:39;;;;;;;1.37;1.20;;;;;;;;;;5059996;28;20231;-65
2022/01/05 06:04:26;;;;;;;1.67;1.30;;;;;;;;;;5063630;28;20255;-65
2022/01/05 06:07:13;;;;;;;1.87;1.53;;;;;;;;;;5061272;28;20588;-66
2022/01/05 06:10:00;;;;;;;1.53;1.40;;;;;;;;;;5063335;28;20239;-65
2022/01/05 06:12:47;;;;;;;2.40;1.50;;;;;;;;;;5062328;28;20237;-65
2022/01/05 06:15:36;;;;;;;1.83;1.40;;;;;;;;;;5064015;28;20208;-66
2022/01/05 06:18:22;;;;;;;1.87;1.60;;;;;;;;;;5058944;28;20300;-66
2022/01/05 06:21:09;;;;;;;1.37;1.27;;;;;;;;;;5056826;28;20237;-66
2022/01/05 06:23:56;;;;;;;1.43;1.33;;;;;;;;;;5060976;28;20231;-66
2022/01/05 06:26:44;;;;;;;2.20;1.17;;;;;;;;;;5072286;28;20290;-65
2022/01/05 06:29:31;;;;;;;1.50;1.37;;;;;;;;;;5071280;28;20285;-65
2022/01/05 06:32:20;;;;;;;1.73;1.47;;;;;;;;;;5069090;28;20384;-65
2022/01/05 06:35:07;;;;;;;1.93;1.47;;;;;;;;;;5063570;28;20203;-66
2022/01/05 06:37:54;;;;;;;1.53;1.20;;;;;;;;;;5067294;28;20255;-65
2022/01/05 06:40:41;;;;;;;2.93;1.60;;;;;;;;;;5069089;28;20212;-75
2022/01/05 06:43:28;;;;;;;1.50;1.40;;;;;;;;;;5065020;28;20275;-75
2022/01/05 06:46:15;;;;;;;1.83;1.60;;;;;;;;;;5069137;28;20220;-75
2022/01/05 06:49:03;;;;;;;1.93;1.47;;;;;;;;;;5068929;28;20250;-75
2022/01/05 06:51:51;;;;;;;1.77;1.50;;;;;;;;;;5069404;28;20358;-74
2022/01/05 06:54:38;;;;;;;2.07;1.20;;;;;;;;;;5067848;28;20212;-75
2022/01/05 06:57:25;;;;;;;2.80;1.40;;;;;;;;;;5067144;28;20288;-75
2022/01/05 07:00:13;;;;;;;1.83;1.43;;;;;;;;;;5068530;28;20687;-74
2022/01/05 07:03:00;;;;;;;1.83;1.20;;;;;;;;;;5065366;28;20617;-75
2022/01/05 07:05:49;;;;;;;1.60;1.43;;;;;;;;;;5068459;28;20282;-74
2022/01/05 07:08:36;;;;;;;1.63;1.53;;;;;;;;;;5067792;28;20252;-74
2022/01/05 07:11:22;;;;;;;2.93;1.30;;;;;;;;;;5068260;28;20228;-71
2022/01/05 07:14:09;;;;;;;1.30;1.20;;;;;;;;;;5064851;28;20322;-75
2022/01/05 07:16:56;;;;;;;2.87;1.83;;;;;;;;;;5069495;28;20334;-74
2022/01/05 07:19:43;;;;;;;1.80;1.57;;;;;;;;;;5067992;28;20339;-75
2022/01/05 07:22:32;;;;;;;1.97;1.77;;;;;;;;;;5067547;28;20232;-73
2022/01/05 07:25:19;;;;;;;1.93;1.67;;;;;;;;;;5066006;28;20232;-73
2022/01/05 07:28:06;;;;;;;2.50;1.70;;;;;;;;;;5067396;28;20679;-75
2022/01/05 07:30:52;;;;;;;2.20;1.87;;;;;;;;;;5066914;28;20395;-75
2022/01/05 07:33:39;;;;;;;2.80;1.67;;;;;;;;;;5063524;28;20230;-74
2022/01/05 07:36:26;;;;;;;2.23;1.63;;;;;;;;;;5068154;28;20698;-75
2022/01/05 07:39:15;;;;;;;1.93;1.50;;;;;;;;;;5064694;28;20196;-75
2022/01/05 07:42:02;;;;;;;1.70;1.60;;;;;;;;;;5067334;28;20334;-75
2022/01/05 07:44:50;;;;;;;1.63;1.53;;;;;;;;;;5066195;28;20208;-74
2022/01/05 07:47:37;;;;;;;1.80;1.70;;;;;;;;;;5064924;28;20235;-75
2022/01/05 07:50:24;;;;;;;1.77;1.40;;;;;;;;;;5064776;28;20357;-74
2022/01/05 07:53:11;;;;;;;1.87;1.60;;;;;;;;;;5063722;28;20282;-75
2022/01/05 07:55:59;;;;;;;2.13;1.67;;;;;;;;;;5064943;28;20292;-75
2022/01/05 07:58:47;;;;;;;1.40;1.30;;;;;;;;;;5065377;28;20208;-75
2022/01/05 08:01:35;;;;;;;1.80;1.33;;;;;;;;;;5064762;28;20243;-74
2022/01/05 08:04:22;;;;;;;1.47;1.37;;;;;;;;;;5064218;28;20582;-74
2022/01/05 08:07:09;;;;;;;2.03;1.33;;;;;;;;;;5059947;28;20321;-74
2022/01/05 08:09:55;;;;;;;2.60;1.53;;;;;;;;;;5061163;28;20417;-73
2022/01/05 08:12:44;;;;;;;2.57;1.60;;;;;;;;;;5064891;28;20296;-75
2022/01/05 08:15:31;;;;;;;1.17;1.07;;;;;;;;;;5062267;28;20743;-74
2022/01/05 08:18:19;;;;;;;2.00;1.40;;;;;;;;;;5064879;28;20239;-75
2022/01/05 08:21:06;;;;;;;1.53;1.43;;;;;;;;;;5064957;28;20223;-75
2022/01/05 08:23:53;;;;;;;2.37;1.37;;;;;;;;;;5062370;28;20241;-71
2022/01/05 08:26:40;;;;;;;1.40;1.23;;;;;;;;;;5064699;28;20217;-75
2022/01/05 08:29:28;;;;;;;1.30;1.20;;;;;;;;;;5060681;28;20301;-74
2022/01/05 08:32:15;;;;;;;1.43;1.33;;;;;;;;;;5065531;28;20693;-74
2022/01/05 08:35:02;;;;;;;1.77;1.10;;;;;;;;;;5063672;28;20283;-74
2022/01/05 08:37:49;;;;;;;1.43;1.33;;;;;;;;;;5061402;28;20221;-74
2022/01/05 08:40:37;;;;;;;1.40;1.30;;;;;;;;;;5063795;28;20742;-75
2022/01/05 08:43:24;;;;;;;1.10;1.00;;;;;;;;;;5061254;28;20209;-74
2022/01/05 08:46:12;;;;;;;1.10;0.90;;;;;;;;;;5067599;28;20217;-74
2022/01/05 08:48:59;;;;;;;1.00;1.00;;;;;;;;;;5063857;28;20236;-74
2022/01/05 08:51:46;;;;;;;0.70;0.70;;;;;;;;;;5058606;28;20677;-75
2022/01/05 08:54:33;;;;;;;1.00;1.00;;;;;;;;;;5062675;28;20299;-74
2022/01/05 08:57:21;;;;;;;1.03;0.93;;;;;;;;;;5064536;28;20263;-75
2022/01/05 09:00:09;;;;;;;0.90;0.90;;;;;;;;;;5062646;28;20638;-73
2022/01/05 09:02:58;;;;;;;1.00;0.80;;;;;;;;;;5063311;28;20673;-74
2022/01/05 09:05:45;;;;;;;0.80;0.80;;;;;;;;;;5062393;28;20331;-75
2022/01/05 09:08:32;;;;;;;0.70;0.70;;;;;;;;;;5062998;28;20264;-75
2022/01/05 09:11:20;;;;;;;0.77;0.77;;;;;;;;;;5063405;28;20267;-73
2022/01/05 09:14:07;;;;;;;0.77;0.77;;;;;;;;;;5061864;28;20240;-77
2022/01/05 09:16:54;;;;;;;0.73;0.73;;;;;;;;;;5063490;28;20222;-74
2022/01/05 09:19:42;;;;;;;0.60;0.60;;;;;;;;;;5060781;28;20314;-74
2022/01/05 09:22:30;;;;;;;0.80;0.80;;;;;;;;;;5064457;28;20200;-74
2022/01/05 09:25:18;;;;;;;0.80;0.80;;;;;;;;;;5063881;28;20221;-74
2022/01/05 09:28:05;;;;;;;0.60;0.60;;;;;;;;;;5060829;28;20208;-75
2022/01/05 09:30:53;;;;;;;0.70;0.70;;;;;;;;;;5064018;28;20307;-75
2022/01/05 09:33:40;;;;;;;0.77;0.77;;;;;;;;;;5061443;28;20224;-74
2022/01/05 09:36:34;;;;;;;0.87;0.87;;;;;;;;;;5060739;28;20200;-75
2022/01/05 09:42:25;;;;;;;0.57;0.57;;;;;;;;;;5057218;28;20215;-75
2022/01/05 09:45:20;;;;;;;0.60;0.60;;;;;;;;;;5062620;28;20275;-75
2022/01/05 09:48:20;;;;;;;0.77;0.60;;;;;;;;;;5062605;28;20204;-72
2022/01/05 09:51:12;;;;;;;0.40;0.40;;;;;;;;;;5059280;28;20337;-73
2022/01/05 09:54:02;;;;;;;0.67;0.50;;;;;;;;;;5063258;28;20247;-75
2022/01/05 09:56:50;;;;;;;0.70;0.70;;;;;;;;;;5059634;28;20213;-75
2022/01/05 09:59:37;;;;;;;0.53;0.53;;;;;;;;;;5056761;28;20578;-75
2022/01/05 10:02:24;;;;;;;0.47;0.47;;;;;;;;;;5061896;28;20248;-75
2022/01/05 10:05:15;;;;;;;0.60;0.60;;;;;;;;;;5061245;28;20615;-73
2022/01/05 10:08:02;;;;;;;0.50;0.50;;;;;;;;;;5062532;28;20235;-73
2022/01/05 10:10:51;;;;;;;0.50;0.50;;;;;;;;;;5061424;28;20395;-71
2022/01/05 10:13:38;;;;;;;0.40;0.40;;;;;;;;;;5059760;28;20268;-74
2022/01/05 10:16:25;;;;;;;0.50;0.50;;;;;;;;;;5063603;28;20220;-75
2022/01/05 10:19:21;;;;;;;0.80;0.80;;;;;;;;;;5061010;28;20231;-74
2022/01/05 10:22:33;;;;;;;0.50;0.50;;;;;;;;;;5061417;28;20213;-73
2022/01/05 10:25:23;;;;;;;0.50;0.50;;;;;;;;;;5064539;28;20804;-74
2022/01/05 10:28:11;;;;;;;0.40;0.40;;;;;;;;;;5062220;28;20622;-74
2022/01/05 10:30:58;;;;;;;0.60;0.60;;;;;;;;;;5063938;28;20240;-75
2022/01/05 10:33:45;;;;;;;0.63;0.63;;;;;;;;;;5060896;28;20356;-75
2022/01/05 10:36:44;;;;;;;0.60;0.60;;;;;;;;;;5063385;28;20669;-74
2022/01/05 10:39:35;;;;;;;0.60;0.60;;;;;;;;;;5063908;28;20293;-74
2022/01/05 10:42:31;;;;;;;0.77;0.77;;;;;;;;;;5061656;28;20216;-74
2022/01/05 10:45:21;;;;;;;0.60;0.60;;;;;;;;;;5061347;28;20297;-74
2022/01/05 10:48:10;;;;;;;0.70;0.70;;;;;;;;;;5063372;28;20288;-73
2022/01/05 10:51:04;;;;;;;1.00;1.00;;;;;;;;;;5063883;28;20212;-72
2022/01/05 10:54:10;;;;;;;0.97;0.97;;;;;;;;;;5066196;28;20240;-74
2022/01/05 10:57:07;;;;;;;0.60;0.60;;;;;;;;;;5062721;28;20522;-73
2022/01/05 10:59:57;;;;;;;0.70;0.70;;;;;;;;;;5061185;28;20208;-73
2022/01/05 11:02:46;;;;;;;0.80;0.80;;;;;;;;;;5062622;28;20312;-74
2022/01/05 11:05:33;;;;;;;0.70;0.70;;;;;;;;;;5064837;28;20305;-74
2022/01/05 11:08:20;;;;;;;2.90;0.77;;;;;;;;;;5060067;28;20260;-75
2022/01/05 11:11:29;;;;;;;0.90;0.90;;;;;;;;;;5063749;28;20209;-73
2022/01/05 11:14:17;;;;;;;0.70;0.70;;;;;;;;;;5064357;28;20260;-75
2022/01/05 11:17:06;;;;;;;0.60;0.60;;;;;;;;;;5062209;28;20293;-73
2022/01/05 11:20:10;;;;;;;0.67;0.67;;;;;;;;;;5065617;28;20295;-75
2022/01/05 11:22:57;;;;;;;0.70;0.70;;;;;;;;;;5062171;28;20286;-75
2022/01/05 11:25:45;;;;;;;0.60;0.60;;;;;;;;;;5060099;28;20316;-72
2022/01/05 11:28:32;;;;;;;0.70;0.70;;;;;;;;;;5063936;28;20291;-75
2022/01/05 11:31:19;;;;;;;0.80;0.70;;;;;;;;;;5066896;28;20358;-75
2022/01/05 11:34:06;;;;;;;0.60;0.60;;;;;;;;;;5066499;28;20875;-75
2022/01/05 11:36:55;;;;;;;0.87;0.87;;;;;;;;;;5065310;28;20200;-74
2022/01/05 11:39:44;;;;;;;0.30;0.30;;;;;;;;;;5064943;28;20245;-75
2022/01/05 11:42:35;;;;;;;0.50;0.50;;;;;;;;;;5063968;28;20315;-73
2022/01/05 11:45:33;;;;;;;0.70;0.70;;;;;;;;;;5065217;28;20576;-73
2022/01/05 11:48:26;;;;;;;0.40;0.40;;;;;;;;;;5064253;28;20366;-73
2022/01/05 11:51:13;;;;;;;0.47;0.47;;;;;;;;;;5064365;28;20263;-75
2022/01/05 11:54:19;;;;;;;0.30;0.30;;;;;;;;;;5064713;28;20952;-75
2022/01/05 11:57:08;;;;;;;0.43;0.43;;;;;;;;;;5066065;28;20213;-73
2022/01/05 12:00:17;;;;;;;0.40;0.40;;;;;;;;;;5061543;28;20213;-73
2022/01/05 12:03:04;;;;;;;0.30;0.30;;;;;;;;;;5060845;28;20297;-75
2022/01/05 12:06:09;;;;;;;0.40;0.40;;;;;;;;;;5064955;28;20233;-73
2022/01/05 12:08:58;;;;;;;0.20;0.20;;;;;;;;;;5060480;28;20265;-74
2022/01/05 12:11:45;;;;;;;0.30;0.30;;;;;;;;;;5063610;28;20293;-73
2022/01/05 12:14:53;;;;;;;0.40;0.40;;;;;;;;;;5065232;28;20303;-72
2022/01/05 12:17:42;;;;;;;0.40;0.40;;;;;;;;;;5063490;28;20318;-73
2022/01/05 12:20:34;;;;;;;0.40;0.40;;;;;;;;;;5064084;28;20213;-74
2022/01/05 12:23:24;;;;;;;0.30;0.30;;;;;;;;;;5066429;28;20219;-73
2022/01/05 12:26:15;;;;;;;0.20;0.20;;;;;;;;;;5060834;28;20220;-74
2022/01/05 12:29:03;;;;;;;0.20;0.20;;;;;;;;;;5064143;28;20214;-74
2022/01/05 12:31:59;;;;;;;0.30;0.30;;;;;;;;;;5060521;28;20673;-73
2022/01/05 12:34:59;;;;;;;0.20;0.20;;;;;;;;;;5063497;28;20317;-72
2022/01/05 12:37:48;;;;;;;0.20;0.20;;;;;;;;;;5065531;28;20212;-73
2022/01/05 12:40:37;;;;;;;0.20;0.20;;;;;;;;;;5064842;28;20677;-74
2022/01/05 12:43:35;;;;;;;0.20;0.20;;;;;;;;;;5065575;28;20342;-73
2022/01/05 12:46:42;;;;;;;0.20;0.20;;;;;;;;;;5062836;28;20690;-73
2022/01/05 12:49:32;;;;;;;0.20;0.20;;;;;;;;;;5055949;28;20204;-74
2022/01/05 12:52:20;;;;;;;0.30;0.30;;;;;;;;;;5065267;28;20209;-74
2022/01/05 12:55:08;;;;;;;0.20;0.20;;;;;;;;;;5060475;28;20234;-75
2022/01/05 12:57:56;;;;;;;0.40;0.40;;;;;;;;;;5062856;28;20555;-73
2022/01/05 13:00:44;;;;;;;0.20;0.20;;;;;;;;;;5065973;28;20216;-74
2022/01/05 13:03:32;;;;;;;0.20;0.20;;;;;;;;;;5062233;28;20679;-72
2022/01/05 13:06:20;;;;;;;0.20;0.20;;;;;;;;;;5064749;28;20268;-73
2022/01/05 13:09:12;;;;;;;0.30;0.30;;;;;;;;;;5064988;28;20350;-73
2022/01/05 13:12:01;;;;;;;0.30;0.30;;;;;;;;;;5060569;28;20220;-74
2022/01/05 13:14:49;;;;;;;0.30;0.30;;;;;;;;;;5063231;28;20250;-73
2022/01/05 13:17:37;;;;;;;0.30;0.30;;;;;;;;;;5061064;28;20711;-73
2022/01/05 13:20:24;;;;;;;0.33;0.33;;;;;;;;;;5063364;28;20255;-73
2022/01/05 13:23:11;;;;;;;0.30;0.30;;;;;;;;;;5064984;28;20212;-74
2022/01/05 13:26:10;;;;;;;0.50;0.50;;;;;;;;;;5063670;28;20200;-74
2022/01/05 13:28:57;;;;;;;0.50;0.50;;;;;;;;;;5062095;28;20207;-73
2022/01/05 13:31:54;;;;;;;0.40;0.40;;;;;;;;;;5062522;28;20292;-73
2022/01/05 13:34:44;;;;;;;0.60;0.60;;;;;;;;;;5059456;28;20236;-74
2022/01/05 13:37:34;;;;;;;0.40;0.30;;;;;;;;;;5063275;28;20205;-72
2022/01/05 13:40:22;;;;;;;0.30;0.30;;;;;;;;;;5061065;28;20205;-74
2022/01/05 13:43:14;;;;;;;0.30;0.30;;;;;;;;;;5061622;28;20343;-74
2022/01/05 13:46:01;;;;;;;0.30;0.30;;;;;;;;;;5063909;28;20335;-73
2022/01/05 13:48:48;;;;;;;0.40;0.40;;;;;;;;;;5060512;28;20292;-73
2022/01/05 13:51:35;;;;;;;0.33;0.33;;;;;;;;;;5064184;28;20658;-74
2022/01/05 13:54:22;;;;;;;0.40;0.40;;;;;;;;;;5062876;28;20229;-74
2022/01/05 13:57:26;;;;;;;0.37;0.37;;;;;;;;;;5059266;28;20235;-74
2022/01/05 14:00:18;;;;;;;0.30;0.30;;;;;;;;;;5064938;28;20205;-74
2022/01/05 14:03:05;;;;;;;1.30;0.50;;;;;;;;;;5057996;28;20211;-73
2022/01/05 14:05:52;;;;;;;0.20;0.20;;;;;;;;;;5062734;28;20311;-74
2022/01/05 14:08:41;;;;;;;0.30;0.30;;;;;;;;;;5063891;28;20322;-74
2022/01/05 14:11:29;;;;;;;0.30;0.30;;;;;;;;;;5063038;28;20750;-74
2022/01/05 14:14:16;;;;;;;0.40;0.40;;;;;;;;;;5065206;28;20748;-73
2022/01/05 14:17:14;;;;;;;0.43;0.33;;;;;;;;;;5063783;28;20237;-75
2022/01/05 14:20:18;;;;;;;0.50;0.43;;;;;;;;;;5060778;28;20205;-74
2022/01/05 14:23:07;;;;;;;0.30;0.30;;;;;;;;;;5062635;28;20212;-74
2022/01/05 14:25:59;;;;;;;0.53;0.53;;;;;;;;;;5059264;28;20919;-75
2022/01/05 14:28:46;;;;;;;0.40;0.40;;;;;;;;;;5061276;28;20218;-74
2022/01/05 14:31:34;;;;;;;0.57;0.57;;;;;;;;;;5062254;28;20263;-74
2022/01/05 14:34:23;;;;;;;0.50;0.50;;;;;;;;;;5060119;28;20253;-74
2022/01/05 14:37:12;;;;;;;0.40;0.40;;;;;;;;;;5059076;28;20251;-75
2022/01/05 14:40:00;;;;;;;0.50;0.50;;;;;;;;;;5062876;28;20741;-75
2022/01/05 14:42:54;;;;;;;0.53;0.53;;;;;;;;;;5059675;28;20212;-71
2022/01/05 14:45:43;;;;;;;0.40;0.40;;;;;;;;;;5061509;28;20695;-74
2022/01/05 14:48:30;;;;;;;0.50;0.50;;;;;;;;;;5066560;28;20619;-74
2022/01/05 14:51:18;;;;;;;0.40;0.40;;;;;;;;;;5067321;28;20292;-74
2022/01/05 14:54:06;;;;;;;0.30;0.30;;;;;;;;;;5066066;28;20281;-73
2022/01/05 14:56:55;;;;;;;0.57;0.57;;;;;;;;;;5063480;28;20208;-75
2022/01/05 14:59:42;;;;;;;0.40;0.40;;;;;;;;;;5066886;28;20234;-74
2022/01/05 15:02:28;;;;;;;0.50;0.50;;;;;;;;;;5064885;28;20741;-75
2022/01/05 15:05:16;;;;;;;0.50;0.50;;;;;;;;;;5065730;28;20220;-72
2022/01/05 15:08:05;;;;;;;0.40;0.40;;;;;;;;;;5067460;28;20310;-75
2022/01/05 15:10:52;;;;;;;0.30;0.30;;;;;;;;;;5062234;28;20223;-71
2022/01/05 15:13:39;;;;;;;0.53;0.53;;;;;;;;;;5066346;28;20207;-74
2022/01/05 15:16:26;;;;;;;0.23;0.23;;;;;;;;;;5064004;28;20252;-74
2022/01/05 15:19:12;;;;;;;0.40;0.40;;;;;;;;;;5061725;28;20583;-74
2022/01/05 15:21:59;;;;;;;0.30;0.30;;;;;;;;;;5066607;28;20206;-73
2022/01/05 15:24:48;;;;;;;0.30;0.30;;;;;;;;;;5059575;28;20259;-74
2022/01/05 15:27:35;;;;;;;0.30;0.30;;;;;;;;;;5066023;28;20291;-74
2022/01/05 15:30:22;;;;;;;0.23;0.23;;;;;;;;;;5067415;28;20298;-72
2022/01/05 15:33:09;;;;;;;0.40;0.40;;;;;;;;;;5062372;28;20685;-74
2022/01/05 15:35:56;;;;;;;0.30;0.30;;;;;;;;;;5068299;28;20698;-73
2022/01/05 15:38:43;;;;;;;0.30;0.30;;;;;;;;;;5060164;28;20302;-74
2022/01/05 15:41:32;;;;;;;0.40;0.40;;;;;;;;;;5066590;28;20829;-74
2022/01/05 15:44:19;;;;;;;0.50;0.50;;;;;;;;;;5064849;28;20286;-74
2022/01/05 15:47:06;;;;;;;0.43;0.40;;;;;;;;;;5064938;28;20296;-73
2022/01/05 15:49:53;;;;;;;0.40;0.40;;;;;;;;;;5065110;28;20285;-74
2022/01/05 15:52:40;;;;;;;0.30;0.30;;;;;;;;;;5062117;28;20214;-74
2022/01/05 15:55:32;;;;;;;0.43;0.43;;;;;;;;;;5067136;28;20269;-73
2022/01/05 16:01:30;;;;;;;0.50;0.50;;;;;;;;;;5060707;28;20217;-73
2022/01/05 16:04:17;;;;;;;0.50;0.50;;;;;;;;;;5064775;28;20230;-74
2022/01/05 16:07:05;;;;;;;0.60;0.60;;;;;;;;;;5063205;28;20271;-75
2022/01/05 16:09:51;;;;;;;0.40;0.40;;;;;;;;;;5063413;28;20760;-72
2022/01/05 16:12:38;;;;;;;0.50;0.50;;;;;;;;;;5066802;28;20668;-75
2022/01/05 16:15:27;;;;;;;0.60;0.60;;;;;;;;;;5068566;28;20262;-74
2022/01/05 16:18:16;;;;;;;0.80;0.80;;;;;;;;;;5066194;28;20227;-74
2022/01/05 16:21:04;;;;;;;0.57;0.57;;;;;;;;;;5065640;28;20209;-75
2022/01/05 16:23:51;;;;;;;0.70;0.70;;;;;;;;;;5062518;28;20233;-73
2022/01/05 16:26:38;;;;;;;0.80;0.80;;;;;;;;;;5065939;28;20649;-74
2022/01/05 16:29:26;;;;;;;0.60;0.60;;;;;;;;;;5065124;28;20242;-75
2022/01/05 16:32:14;;;;;;;0.70;0.70;;;;;;;;;;5062881;28;20275;-74
2022/01/05 16:35:01;;;;;;;0.80;0.80;;;;;;;;;;5066279;28;20303;-74
2022/01/05 16:37:48;;;;;;;0.60;0.60;;;;;;;;;;5065561;28;20252;-74
2022/01/05 16:40:38;;;;;;;0.70;0.50;;;;;;;;;;5066304;28;20238;-74
2022/01/05 16:43:25;;;;;;;0.57;0.57;;;;;;;;;;5061005;28;20253;-74
2022/01/05 16:46:16;;;;;;;0.70;0.70;;;;;;;;;;5065416;28;20668;-73
2022/01/05 16:49:05;;;;;;;0.70;0.70;;;;;;;;;;5065203;28;20687;-74
2022/01/05 16:51:52;;;;;;;0.60;0.60;;;;;;;;;;5062936;28;20215;-70
2022/01/05 16:54:43;;;;;;;0.70;0.70;;;;;;;;;;5065077;28;20209;-74
2022/01/05 17:00:39;;;;;;;0.57;0.57;;;;;;;;;;5063538;28;20212;-74